• Join FlightAware (Why Join?)
  • Login
  • US Flag 
03:04AM EDT


 

Airport Tracker/Info


-or-


 

Live Flight TrackerFlight Track Log ✈ CHQ6101 ✈ 17-Apr-2014 ✈ KLGA - KBGR

Flight Track Log - Related Links

Times and Time Zones

All times are in EDT time to prevent confusion due to time zone crossing. See the CHQ6101 flight status page for this flight to view local times or setup timezone preferences in your user account.

Time Position Orientation Groundspeed Altitude Reporting Facility
EDT Latitude Longitude Course Direction KTS MPH feet Rate Location/Type
09:22PM 40.7667 -73.8500 143° Southeast 153 176 900  Level New York TRACON
09:23PM 40.7333 -73.8167 143° Southeast 191 220 2,600 2,040 Climbing New York TRACON
09:24PM 40.7667 -73.7833 37° Northeast 218 251 4,800 2,040 Climbing New York TRACON
09:25PM 40.8333 -73.7333 30° Northeast 266 306 6,700 2,100 Climbing New York TRACON
09:26PM 40.9000 -73.7000 21° North 273 314 9,000 1,680 Climbing New York TRACON
09:27PM 41.0375 -73.6081 27° Northeast 317 365 11,400 1,260 Climbing Boston Center
09:28PM 41.1347 -73.5422 27° Northeast 359 413 12,500 960 Climbing Boston Center
09:29PM 41.2292 -73.4797 26° Northeast 378 435 13,400 1,020 Climbing Boston Center
09:30PM 41.3267 -73.4156 26° Northeast 388 447 14,700 1,260 Climbing Boston Center
09:31PM 41.4219 -73.3525 26° Northeast 388 447 16,100 1,320 Climbing Boston Center
09:32PM 41.5128 -73.2719 34° Northeast 392 451 17,500 1,380 Climbing Boston Center
09:33PM 41.5822 -73.1775 45° Northeast 382 440 19,000 1,920 Climbing Boston Center
09:34PM 41.6636 -73.1156 30° Northeast 351 404 21,500 2,220 Climbing Boston Center
09:36PM 41.7536 -73.1258 355° North 326 375 23,600 1,980 Climbing Boston Center
09:37PM 41.8389 -73.1414 352° North 311 358 25,600 1,560 Climbing Boston Center
09:38PM 41.9233 -73.1564 352° North 309 356 26,800 1,200 Climbing Boston Center
09:39PM 42.0322 -73.1761 352° North 328 377 28,100 1,320 Climbing Boston Center
09:40PM 42.1261 -73.1781 359° North 337 388 29,500 1,320 Climbing Boston Center
09:41PM 42.2017 -73.0956 39° Northeast 357 411 30,800 720 Climbing Boston Center
09:42PM 42.2617 -72.9833 54° Northeast 370 426 31,000 60 Climbing Boston Center
09:43PM 42.3292 -72.8583 54° Northeast 413 475 31,000  Level Boston Center
09:44PM 42.4000 -72.7183 56° Northeast 450 518 31,000  Level Boston Center
09:45PM 42.4972 -72.6106 39° Northeast 460 529 31,000  Level Boston Center
09:46PM 42.5922 -72.4911 43° Northeast 463 533 31,000  Level Boston Center
09:47PM 42.6889 -72.3431 48° Northeast 469 540 31,000  Level Boston Center
09:48PM 42.7775 -72.2028 49° Northeast 473 544 31,000  Level Boston Center
09:49PM 42.8642 -72.0667 49° Northeast 476 548 31,000  Level Boston Center
09:50PM 42.9522 -71.9289 49° Northeast 478 550 31,000  Level Boston Center
09:51PM 43.0381 -71.7911 50° Northeast 479 551 31,000  Level Boston Center
09:52PM 43.1247 -71.6528 49° Northeast 479 551 31,000  Level Boston Center
09:53PM 43.2122 -71.5139 49° Northeast 482 555 31,000  Level Boston Center
09:54PM 43.2978 -71.3719 50° Northeast 482 555 31,000  Level Boston Center
09:55PM 43.3847 -71.2322 49° Northeast 483 556 31,000  Level Boston Center
09:56PM 43.4722 -71.0917 49° Northeast 483 556 31,000  Level Boston Center
09:57PM 43.5758 -70.9200 50° Northeast 483 556 31,000  Level Boston Center
09:58PM 43.6589 -70.7853 50° Northeast 484 557 31,000 -480 Level Boston Center
09:59PM 43.7464 -70.6411 50° Northeast 484 557 30,100 -1,200 Descending Boston Center
10:00PM 43.8331 -70.4986 50° Northeast 484 557 28,600 -1,440 Descending Boston Center
10:01PM 43.9183 -70.3536 51° Northeast 484 557 27,200 -1,500 Descending Boston Center
10:02PM 44.0050 -70.2111 50° Northeast 483 556 25,600 -1,560 Descending Boston Center
10:03PM 44.0914 -70.0658 50° Northeast 485 558 24,100 -1,200 Descending Boston Center
10:04PM 44.1733 -69.9258 51° Northeast 468 539 23,200 -1,560 Descending Boston Center
10:05PM 44.2503 -69.7953 51° Northeast 439 505 21,000 -2,460 Descending Boston Center
10:06PM 44.3353 -69.6519 50° Northeast 429 494 18,200 -2,220 Descending Boston Center
10:07PM 44.3972 -69.5450 51° Northeast 414 476 16,500 -2,580 Descending Boston Center
10:08PM 44.4800 -69.4039 51° Northeast 396 456 13,000 -2,760 Descending Boston Center
10:09PM 44.5442 -69.2922 51° Northeast 377 434 11,000 -1,920 Descending Boston Center
10:10PM 44.5953 -69.2036 51° Northeast 304 350 9,200 -1,800 Descending Boston Center
10:11PM 44.6433 -69.1206 51° Northeast 282 325 7,400 -2,040 Descending Boston Center
10:12PM 44.6878 -69.0417 52° Northeast 264 304 5,100 -2,160 Descending Boston Center
10:13PM 44.7475 -68.9986 27° Northeast 250 288 3,100 -1,380 Descending Boston Center
10:14PM 44.8111 -68.9903 North 237 273 2,300 -420 Descending Boston Center
10:15PM 44.8628 -68.9739 13° North 212 244 2,300 -420 Level Boston Center
10:17PM 44.8569 -68.8972 96° East 154 177 1,300 -720 Descending Boston Center
10:18PM 44.8294 -68.8619 138° Southeast 140 161 600 -540 Descending Boston Center
10:19PM 44.8056 -68.8264 133° Southeast 138 159 300 -300 Descending Boston Center